Time;durP1;ratioP1;P1;durP2;ratioP2;P2;SDS_P1;SDS_P2;PMS_P1;PMS_P2;Temp;Humidity;BMP_temperature;BMP_pressure;BME280_temperature;BME280_humidity;BME280_pressure;Samples;Min_cycle;Max_cycle;Signal;HPM_P1;HPM_P2
2022/09/16 00:02:21;;;;;;;1.13;0.30;;;17.60;91.00;;;;;;10565691;27;20024;-61
2022/09/16 00:07:22;;;;;;;0.60;0.22;;;17.60;90.90;;;;;;10563297;28;20031;-61
2022/09/16 00:12:23;;;;;;;1.73;0.20;;;17.50;90.90;;;;;;10567594;27;20072;-61
2022/09/16 00:17:23;;;;;;;1.23;0.30;;;17.50;90.90;;;;;;10564117;27;20054;-62
2022/09/16 00:22:26;;;;;;;0.32;0.30;;;17.50;90.90;;;;;;10565710;27;20028;-62
2022/09/16 00:27:26;;;;;;;1.15;0.30;;;17.50;91.00;;;;;;10567784;27;20035;-61
2022/09/16 00:32:27;;;;;;;1.63;0.30;;;17.50;91.00;;;;;;10565435;27;20036;-61
2022/09/16 00:37:30;;;;;;;0.75;0.20;;;17.50;91.00;;;;;;10561391;28;20035;-62
2022/09/16 00:42:37;;;;;;;1.30;0.30;;;17.50;91.00;;;;;;10564630;27;20587;-61
2022/09/16 00:47:44;;;;;;;0.80;0.38;;;17.50;91.10;;;;;;10565787;27;20092;-62
2022/09/16 00:52:46;;;;;;;1.60;0.57;;;17.40;91.10;;;;;;10561843;27;20110;-61
2022/09/16 00:57:48;;;;;;;1.73;0.40;;;17.40;91.10;;;;;;10567048;27;20496;-61
2022/09/16 01:02:49;;;;;;;1.75;0.38;;;17.40;91.10;;;;;;10561133;27;20667;-62
2022/09/16 01:07:52;;;;;;;1.67;0.22;;;17.40;91.10;;;;;;10562331;27;20032;-62
2022/09/16 01:12:56;;;;;;;1.17;0.28;;;17.40;91.20;;;;;;10562703;28;20460;-62
2022/09/16 01:18:32;;;;;;;0.93;0.30;;;17.40;91.20;;;;;;10561270;28;20139;-61
2022/09/16 01:23:50;;;;;;;1.50;0.38;;;17.40;91.20;;;;;;10545314;27;20035;-61
2022/09/16 01:29:05;;;;;;;3.20;0.55;;;17.30;91.20;;;;;;10563820;28;20031;-62
2022/09/16 01:34:33;;;;;;;2.30;0.20;;;17.30;91.20;;;;;;10563524;28;20040;-62
2022/09/16 01:39:34;;;;;;;;;;;17.30;91.20;;;;;;10563987;28;20043;-61
2022/09/16 01:44:48;;;;;;;0.93;0.20;;;17.30;91.30;;;;;;10560932;28;19915;-61
2022/09/16 01:50:25;;;;;;;1.08;0.30;;;17.30;91.20;;;;;;10562914;27;20036;-61
2022/09/16 01:55:36;;;;;;;1.42;0.35;;;17.30;91.30;;;;;;10570780;27;20042;-62
2022/09/16 02:00:40;;;;;;;0.52;0.20;;;17.20;91.20;;;;;;10565825;27;20035;-61
2022/09/16 02:05:50;;;;;;;1.08;0.25;;;17.20;91.20;;;;;;10569473;27;20019;-61
2022/09/16 02:10:56;;;;;;;1.63;0.28;;;17.20;91.30;;;;;;10571118;27;20186;-62
2022/09/16 02:16:04;;;;;;;1.35;0.38;;;17.20;91.30;;;;;;10570332;27;20057;-61
2022/09/16 02:21:09;;;;;;;1.00;0.30;;;17.20;91.30;;;;;;10570953;27;20036;-62
2022/09/16 02:26:16;;;;;;;1.55;0.32;;;17.20;91.30;;;;;;10570362;27;20433;-62
2022/09/16 02:31:25;;;;;;;0.73;0.20;;;17.20;91.30;;;;;;10569800;27;20111;-61
2022/09/16 02:36:27;;;;;;;1.10;0.38;;;17.20;91.30;;;;;;10566793;27;20031;-61
2022/09/16 02:41:28;;;;;;;1.13;0.30;;;17.10;91.30;;;;;;10569092;27;20409;-62
2022/09/16 02:46:59;;;;;;;1.85;0.20;;;17.10;91.30;;;;;;10562520;27;20027;-61
2022/09/16 02:52:32;;;;;;;2.50;0.40;;;17.10;91.30;;;;;;10550882;27;20088;-62
2022/09/16 02:57:32;;;;;;;1.55;0.40;;;17.10;91.40;;;;;;10563234;27;20076;-61
2022/09/16 03:02:34;;;;;;;1.58;0.30;;;17.10;91.40;;;;;;10567677;27;20439;-61
2022/09/16 03:07:38;;;;;;;1.58;0.20;;;17.10;91.40;;;;;;10566987;27;20040;-62
2022/09/16 03:12:50;;;;;;;2.05;0.30;;;17.10;91.40;;;;;;10568386;27;20499;-61
2022/09/16 03:18:13;;;;;;;2.45;1.30;;;17.10;91.40;;;;;;10545489;27;20040;-61
2022/09/16 03:23:32;;;;;;;1.95;0.30;;;17.00;91.40;;;;;;10565316;28;20031;-61
2022/09/16 03:29:11;;;;;;;1.65;0.40;;;17.00;91.40;;;;;;10566710;27;20015;-62
2022/09/16 03:34:22;;;;;;;1.27;0.47;;;17.00;91.40;;;;;;10566837;27;20090;-62
2022/09/16 03:39:23;;;;;;;1.52;0.30;;;17.00;91.40;;;;;;10567339;27;20039;-61
2022/09/16 03:44:32;;;;;;;1.38;0.32;;;17.00;91.40;;;;;;10564616;27;20091;-62
2022/09/16 03:49:33;;;;;;;0.38;0.20;;;16.90;91.40;;;;;;10566443;27;20027;-61
2022/09/16 03:54:35;;;;;;;0.50;0.20;;;16.90;91.40;;;;;;10561773;28;20030;-62
2022/09/16 03:59:36;;;;;;;0.63;0.30;;;16.90;91.40;;;;;;10564164;27;20024;-62
2022/09/16 04:04:37;;;;;;;1.20;0.20;;;16.90;91.40;;;;;;10562249;28;20384;-62
2022/09/16 04:09:37;;;;;;;3.70;0.60;;;16.90;91.40;;;;;;10563097;28;20110;-61
2022/09/16 04:14:38;;;;;;;0.10;0.10;;;16.90;91.30;;;;;;10556740;28;20684;-62
2022/09/16 04:19:39;;;;;;;0.40;0.20;;;16.90;91.40;;;;;;10561478;27;20035;-62
2022/09/16 04:24:40;;;;;;;0.10;0.10;;;16.90;91.40;;;;;;10559570;28;20027;-63
2022/09/16 04:29:41;;;;;;;1.40;0.30;;;16.90;91.40;;;;;;10559044;27;20044;-62
2022/09/16 04:34:42;;;;;;;1.10;0.38;;;16.80;91.30;;;;;;10566423;27;20063;-61
2022/09/16 04:39:42;;;;;;;0.40;0.20;;;16.80;91.30;;;;;;10559502;27;20683;-62
2022/09/16 04:44:43;;;;;;;0.60;0.20;;;16.80;91.30;;;;;;10557979;27;20031;-65
2022/09/16 04:49:44;;;;;;;2.22;0.32;;;16.80;91.30;;;;;;10558533;27;20466;-61
2022/09/16 04:54:45;;;;;;;1.20;0.50;;;16.80;91.30;;;;;;10560638;28;20046;-62
2022/09/16 04:59:45;;;;;;;0.50;0.10;;;16.80;91.30;;;;;;10563872;27;20059;-61
2022/09/16 05:04:46;;;;;;;2.35;0.30;;;16.80;91.40;;;;;;10558138;27;20028;-61
2022/09/16 05:09:47;;;;;;;2.83;0.28;;;16.80;91.40;;;;;;10564649;27;20032;-62
2022/09/16 05:14:47;;;;;;;0.90;0.30;;;16.70;91.30;;;;;;10561815;28;20019;-61
2022/09/16 05:19:48;;;;;;;3.25;0.30;;;16.70;91.30;;;;;;10523905;28;20419;-62
2022/09/16 05:24:49;;;;;;;1.70;0.50;;;16.70;91.30;;;;;;10561158;27;20038;-62
2022/09/16 05:29:49;;;;;;;2.70;0.22;;;16.70;91.30;;;;;;10560326;28;20057;-61
2022/09/16 05:34:50;;;;;;;0.70;0.30;;;16.70;91.30;;;;;;10551782;28;20451;-61
2022/09/16 05:39:51;;;;;;;4.25;0.50;;;16.70;91.30;;;;;;10519320;28;20043;-61
2022/09/16 05:44:52;;;;;;;1.27;0.20;;;16.70;91.40;;;;;;10475496;28;20027;-62
2022/09/16 05:49:53;;;;;;;1.77;0.22;;;16.70;91.30;;;;;;10475140;28;20097;-62
2022/09/16 05:54:54;;;;;;;1.48;0.40;;;16.70;91.40;;;;;;10474380;28;20023;-61
2022/09/16 05:59:55;;;;;;;1.77;0.40;;;16.70;91.30;;;;;;10475070;28;20222;-61
2022/09/16 06:04:56;;;;;;;1.30;0.30;;;16.70;91.30;;;;;;10512539;22;20032;-61
2022/09/16 06:09:56;;;;;;;1.00;0.52;;;16.60;91.30;;;;;;10396384;28;20095;-62
2022/09/16 06:14:57;;;;;;;2.97;0.32;;;16.40;91.20;;;;;;10395373;28;20133;-67
2022/09/16 06:19:58;;;;;;;3.47;0.50;;;16.60;91.30;;;;;;10398717;28;20040;-65
2022/09/16 06:24:59;;;;;;;1.85;0.45;;;16.60;91.30;;;;;;10396878;28;20598;-64
2022/09/16 06:30:00;;;;;;;1.50;0.40;;;16.60;91.30;;;;;;10397859;28;20025;-64
2022/09/16 06:35:01;;;;;;;2.65;0.60;;;16.60;91.20;;;;;;10397984;28;20045;-64
2022/09/16 06:40:02;;;;;;;3.00;0.50;;;16.60;91.20;;;;;;10410282;28;20194;-64
2022/09/16 06:45:03;;;;;;;1.42;0.45;;;16.60;91.50;;;;;;10400281;28;20044;-64
2022/09/16 06:50:05;;;;;;;1.92;0.40;;;16.60;91.40;;;;;;10400477;28;20621;-64
2022/09/16 06:55:06;;;;;;;1.92;0.45;;;16.60;91.20;;;;;;10404028;28;20048;-70
2022/09/16 07:00:07;;;;;;;1.20;0.30;;;16.70;91.10;;;;;;10401609;28;20655;-61
2022/09/16 07:05:08;;;;;;;3.63;0.35;;;16.70;91.10;;;;;;10393768;28;20848;-62
2022/09/16 07:10:13;;;;;;;1.17;0.40;;;16.70;91.10;;;;;;10400014;28;20679;-62
2022/09/16 07:15:13;;;;;;;2.65;0.63;;;16.70;91.10;;;;;;10408192;28;20041;-64
2022/09/16 07:20:14;;;;;;;2.80;0.40;;;16.70;91.10;;;;;;10409001;28;20049;-67
2022/09/16 07:25:16;;;;;;;1.77;0.70;;;16.70;91.00;;;;;;10404476;28;20024;-62
2022/09/16 07:30:16;;;;;;;1.13;0.60;;;16.70;91.00;;;;;;10408805;28;20049;-62
2022/09/16 07:35:17;;;;;;;1.38;0.30;;;16.70;91.00;;;;;;10401969;28;20059;-61
2022/09/16 07:40:18;;;;;;;1.13;0.40;;;16.70;90.90;;;;;;10407595;28;20904;-61
2022/09/16 07:45:18;;;;;;;1.70;0.40;;;16.80;90.90;;;;;;10405211;28;20036;-61
2022/09/16 07:50:19;;;;;;;2.00;0.40;;;16.90;91.10;;;;;;10406141;28;20025;-61
2022/09/16 07:55:20;;;;;;;1.70;0.47;;;17.00;90.80;;;;;;10409588;28;20523;-61
2022/09/16 08:00:21;;;;;;;0.57;0.20;;;17.10;90.70;;;;;;10405894;28;20222;-62
2022/09/16 08:05:21;;;;;;;1.73;0.40;;;17.10;90.60;;;;;;10408696;28;20059;-61
2022/09/16 08:10:22;;;;;;;1.95;0.40;;;17.20;90.60;;;;;;10446798;28;20338;-63
2022/09/16 08:15:23;;;;;;;2.65;0.70;;;17.20;90.60;;;;;;10443337;28;20434;-64
2022/09/16 08:20:25;;;;;;;1.50;0.30;;;17.20;90.50;;;;;;10440379;28;20039;-62
2022/09/16 08:25:25;;;;;;;1.15;0.35;;;17.30;90.60;;;;;;10439993;28;20032;-61
2022/09/16 08:30:29;;;;;;;4.43;0.93;;;17.30;90.50;;;;;;10442514;28;20931;-63
2022/09/16 08:35:30;;;;;;;3.75;0.40;;;17.30;90.50;;;;;;10440443;28;20630;-59
2022/09/16 08:40:35;;;;;;;2.05;1.20;;;17.30;90.60;;;;;;10437061;28;20113;-61
2022/09/16 08:45:52;;;;;;;1.08;0.45;;;17.30;90.70;;;;;;10438476;28;20674;-61
2022/09/16 08:50:54;;;;;;;1.10;0.30;;;17.40;90.70;;;;;;10434239;28;20054;-61
2022/09/16 08:55:55;;;;;;;2.47;0.38;;;17.40;90.60;;;;;;10441201;28;20039;-61
2022/09/16 09:01:01;;;;;;;1.65;0.43;;;17.40;90.60;;;;;;10412875;28;20079;-61
2022/09/16 09:06:12;;;;;;;0.73;0.32;;;17.40;90.60;;;;;;10435343;28;20529;-61
2022/09/16 09:11:35;;;;;;;1.58;0.30;;;17.50;90.60;;;;;;10414918;28;20024;-62
2022/09/16 09:16:36;;;;;;;4.18;0.70;;;17.40;90.60;;;;;;10416423;28;20221;-63
2022/09/16 09:21:44;;;;;;;1.63;0.55;;;17.40;90.60;;;;;;10439385;28;20822;-62
2022/09/16 09:26:53;;;;;;;5.30;0.80;;;17.40;90.60;;;;;;10440104;28;20115;-63
2022/09/16 09:32:01;;;;;;;3.55;0.60;;;17.40;90.50;;;;;;10440328;28;20548;-62
2022/09/16 09:37:23;;;;;;;1.70;0.40;;;17.10;90.30;;;;;;10436778;28;20044;-62
2022/09/16 09:42:33;;;;;;;2.90;0.50;;;17.60;90.40;;;;;;10438256;28;20024;-62
2022/09/16 09:48:08;;;;;;;2.42;0.30;;;17.70;90.30;;;;;;10442114;28;20060;-63
2022/09/16 09:53:32;;;;;;;2.00;0.55;;;17.80;90.20;;;;;;10391450;28;20093;-63
2022/09/16 09:58:39;;;;;;;4.45;0.75;;;17.80;90.10;;;;;;10440515;28;20446;-63
2022/09/16 10:03:40;;;;;;;3.38;0.65;;;17.80;90.10;;;;;;10436256;28;20338;-62
2022/09/16 10:08:47;;;;;;;1.77;0.40;;;17.80;90.10;;;;;;10438597;28;20473;-63
2022/09/16 10:13:54;;;;;;;2.72;0.65;;;17.90;90.10;;;;;;10449018;28;20052;-63
2022/09/16 10:19:07;;;;;;;2.08;0.55;;;18.00;90.00;;;;;;10449691;28;20051;-62
2022/09/16 10:24:34;;;;;;;3.75;0.70;;;18.10;89.70;;;;;;10448225;28;20447;-62
2022/09/16 10:29:35;;;;;;;4.00;1.00;;;18.10;89.50;;;;;;10445730;28;20028;-63
2022/09/16 10:34:39;;;;;;;3.28;0.65;;;18.10;89.70;;;;;;10447631;28;20629;-63
2022/09/16 10:39:43;;;;;;;3.22;0.60;;;18.10;89.80;;;;;;10459413;28;20573;-63
2022/09/16 10:44:47;;;;;;;2.97;0.68;;;18.00;89.80;;;;;;10447715;28;20182;-65
2022/09/16 10:49:57;;;;;;;2.70;0.77;;;18.10;89.90;;;;;;10456201;28;20499;-65
2022/09/16 10:55:18;;;;;;;2.05;0.40;;;18.20;89.70;;;;;;10448630;28;20085;-63
2022/09/16 11:00:21;;;;;;;4.13;0.75;;;18.20;89.50;;;;;;10451696;28;20048;-63
2022/09/16 11:05:27;;;;;;;1.23;0.50;;;18.30;89.50;;;;;;10442374;28;20966;-62
2022/09/16 11:11:02;;;;;;;4.43;0.73;;;18.30;89.20;;;;;;10451442;28;20047;-63
2022/09/16 11:16:27;;;;;;;2.53;0.65;;;18.40;89.20;;;;;;10441318;28;20024;-63
2022/09/16 11:21:46;;;;;;;3.70;0.52;;;18.40;89.20;;;;;;10441970;28;20059;-62
2022/09/16 11:27:05;;;;;;;2.38;0.32;;;18.40;89.20;;;;;;10446054;28;20039;-63
2022/09/16 11:32:24;;;;;;;1.67;0.47;;;18.40;89.10;;;;;;10440455;28;20039;-63
2022/09/16 11:37:57;;;;;;;8.65;1.02;;;18.40;89.00;;;;;;10437992;28;20091;-62
2022/09/16 11:43:27;;;;;;;3.33;0.65;;;18.50;88.80;;;;;;10434505;28;20528;-62
2022/09/16 11:48:40;;;;;;;4.50;0.60;;;18.50;88.80;;;;;;10445983;28;20199;-62
2022/09/16 11:54:12;;;;;;;2.00;0.50;;;18.60;88.50;;;;;;10444873;28;20960;-63
2022/09/16 11:59:25;;;;;;;4.88;0.60;;;18.70;88.50;;;;;;10451151;28;20047;-62
2022/09/16 12:04:38;;;;;;;2.33;0.50;;;18.70;88.60;;;;;;10449731;28;20246;-62
2022/09/16 12:09:56;;;;;;;1.17;0.50;;;18.70;88.30;;;;;;10448720;28;20059;-61
2022/09/16 12:15:21;;;;;;;2.20;0.50;;;18.80;88.30;;;;;;10451608;28;20763;-63
2022/09/16 12:20:37;;;;;;;3.67;0.52;;;19.00;88.20;;;;;;10447604;28;20121;-62
2022/09/16 12:25:45;;;;;;;2.60;0.40;;;18.90;88.10;;;;;;10451924;28;20027;-62
2022/09/16 12:30:51;;;;;;;2.90;0.60;;;18.80;88.50;;;;;;10450002;28;20034;-63
2022/09/16 12:36:12;;;;;;;3.33;0.88;;;18.80;88.80;;;;;;10442722;28;20751;-64
2022/09/16 12:41:21;;;;;;;5.07;0.50;;;18.80;88.70;;;;;;10446787;28;20514;-63
2022/09/16 12:46:55;;;;;;;2.83;0.52;;;18.80;89.10;;;;;;10445116;28;20465;-63
2022/09/16 12:52:05;;;;;;;1.98;0.63;;;18.80;89.20;;;;;;10450585;28;20398;-63
2022/09/16 12:57:18;;;;;;;3.67;0.60;;;18.80;89.30;;;;;;10446669;28;20151;-63
2022/09/16 13:02:24;;;;;;;2.90;0.50;;;18.70;88.80;;;;;;10449988;28;20307;-62
2022/09/16 13:07:32;;;;;;;1.00;0.43;;;18.70;89.00;;;;;;10449515;28;20553;-63
2022/09/16 13:12:33;;;;;;;;;;;18.80;88.90;;;;;;10446459;28;20328;-63
2022/09/16 13:17:37;;;;;;;3.45;0.98;;;18.80;88.80;;;;;;10446211;28;20451;-62
2022/09/16 13:23:04;;;;;;;1.75;0.40;;;18.90;88.90;;;;;;10446152;28;20028;-62
2022/09/16 13:28:25;;;;;;;3.38;0.55;;;18.90;89.00;;;;;;10422819;28;20056;-62
2022/09/16 13:33:27;;;;;;;5.43;1.10;;;18.90;88.80;;;;;;10441420;28;20443;-62
2022/09/16 13:38:40;;;;;;;4.70;0.70;;;18.90;88.70;;;;;;10441303;28;20531;-62
2022/09/16 13:43:40;;;;;;;6.18;0.68;;;19.00;88.30;;;;;;10420883;28;20134;-62
2022/09/16 13:49:10;;;;;;;1.08;0.52;;;19.10;88.20;;;;;;10454876;28;20027;-63
2022/09/16 13:54:18;;;;;;;3.90;0.55;;;19.20;87.70;;;;;;10452151;28;20028;-62
2022/09/16 13:59:57;;;;;;;4.00;1.00;;;19.30;87.30;;;;;;10456653;28;20078;-63
2022/09/16 14:05:17;;;;;;;5.40;1.33;;;19.50;86.80;;;;;;10391316;28;20257;-63
2022/09/16 14:10:22;;;;;;;6.88;0.80;;;19.50;86.90;;;;;;10426213;28;20063;-63
2022/09/16 14:15:24;;;;;;;3.33;0.82;;;19.50;86.60;;;;;;10451138;28;20077;-64
2022/09/16 14:20:25;;;;;;;3.08;0.60;;;19.50;86.70;;;;;;10452371;28;20393;-64
2022/09/16 14:25:32;;;;;;;5.35;0.98;;;19.50;86.70;;;;;;10447872;28;20484;-61
2022/09/16 14:30:33;;;;;;;3.80;0.50;;;19.50;86.70;;;;;;10453947;28;20582;-61
2022/09/16 14:35:33;;;;;;;3.15;0.70;;;19.50;86.60;;;;;;10455385;28;20031;-61
2022/09/16 14:40:38;;;;;;;3.28;0.75;;;19.50;86.60;;;;;;10436354;28;20120;-61
2022/09/16 14:45:45;;;;;;;4.93;1.02;;;19.60;86.20;;;;;;10453808;28;20533;-63
2022/09/16 14:50:48;;;;;;;4.50;1.10;;;19.70;85.90;;;;;;10451401;28;20031;-65
2022/09/16 14:55:49;;;;;;;3.97;0.93;;;19.70;82.70;;;;;;10444312;28;20820;-63
2022/09/16 15:01:02;;;;;;;6.65;1.00;;;19.30;80.30;;;;;;10447761;28;20444;-62
2022/09/16 15:06:10;;;;;;;6.38;1.33;;;18.80;79.80;;;;;;10455138;28;20360;-62
2022/09/16 15:11:14;;;;;;;6.78;0.75;;;18.50;79.60;;;;;;10453320;28;20146;-63
2022/09/16 15:16:18;;;;;;;11.88;1.40;;;18.20;79.60;;;;;;10450004;28;20164;-65
2022/09/16 15:21:31;;;;;;;11.07;1.33;;;17.90;79.80;;;;;;10447901;28;20104;-62
2022/09/16 15:26:44;;;;;;;9.68;1.20;;;17.80;80.20;;;;;;10454301;28;20037;-62
2022/09/16 15:31:46;;;;;;;7.72;1.23;;;17.70;78.40;;;;;;10448763;28;20052;-65
2022/09/16 15:36:48;;;;;;;8.63;1.40;;;17.50;80.00;;;;;;10450768;28;20083;-62
2022/09/16 15:41:49;;;;;;;7.72;1.85;;;17.40;80.20;;;;;;10447709;28;20035;-64
2022/09/16 15:46:50;;;;;;;7.95;1.15;;;17.50;80.50;;;;;;10448899;28;20484;-63
2022/09/16 15:51:52;;;;;;;3.50;0.88;;;17.60;80.70;;;;;;10439636;28;20028;-63
2022/09/16 15:57:19;;;;;;;7.63;1.17;;;17.90;80.80;;;;;;10442474;28;20120;-63
2022/09/16 16:02:32;;;;;;;4.20;1.27;;;18.00;81.10;;;;;;10433197;28;20503;-63
2022/09/16 16:07:45;;;;;;;4.53;0.85;;;18.10;81.50;;;;;;10442106;28;20637;-64
2022/09/16 16:12:47;;;;;;;6.30;0.93;;;18.20;82.20;;;;;;10437158;28;20058;-63
2022/09/16 16:17:49;;;;;;;5.63;0.95;;;18.20;82.80;;;;;;10439793;28;20555;-63
2022/09/16 16:22:50;;;;;;;3.70;0.90;;;18.20;83.20;;;;;;10440384;28;20090;-63
2022/09/16 16:27:50;;;;;;;4.55;0.75;;;18.20;83.60;;;;;;10435040;28;20039;-64
2022/09/16 16:32:51;;;;;;;5.30;0.98;;;18.30;84.20;;;;;;10439538;28;20028;-63
2022/09/16 16:37:54;;;;;;;6.80;1.23;;;18.30;84.40;;;;;;10438610;28;20487;-63
2022/09/16 16:42:58;;;;;;;3.78;1.13;;;18.30;84.60;;;;;;10443691;28;20241;-64
2022/09/16 16:47:59;;;;;;;2.75;0.88;;;18.30;84.90;;;;;;10442272;28;20298;-63
2022/09/16 16:53:00;;;;;;;4.97;1.00;;;18.30;85.10;;;;;;10435041;28;20416;-63
2022/09/16 16:58:00;;;;;;;5.72;1.00;;;18.30;85.40;;;;;;10439930;28;20047;-65
2022/09/16 17:03:01;;;;;;;4.00;0.98;;;18.30;85.60;;;;;;10441739;28;20498;-63
2022/09/16 17:08:02;;;;;;;2.05;0.73;;;18.30;85.80;;;;;;10444292;28;20075;-67
2022/09/16 17:13:02;;;;;;;4.57;1.23;;;18.10;85.80;;;;;;10450476;28;20024;-65
2022/09/16 17:18:03;;;;;;;7.03;1.15;;;18.20;86.30;;;;;;10444685;28;20054;-63
2022/09/16 17:23:06;;;;;;;3.67;1.10;;;18.10;86.60;;;;;;10444672;28;20032;-62
2022/09/16 17:28:07;;;;;;;8.57;1.35;;;18.10;86.80;;;;;;10445308;28;20567;-68
2022/09/16 17:33:08;;;;;;;7.75;1.30;;;18.10;86.90;;;;;;10449205;28;20054;-64
2022/09/16 17:38:09;;;;;;;6.55;1.33;;;18.10;87.00;;;;;;10448628;28;20086;-64
2022/09/16 17:43:09;;;;;;;5.50;1.10;;;18.10;87.10;;;;;;10442718;28;20036;-65
2022/09/16 17:48:10;;;;;;;3.22;1.30;;;18.00;87.30;;;;;;10448292;28;20031;-64
2022/09/16 17:53:11;;;;;;;4.55;1.38;;;18.00;87.40;;;;;;10450314;28;20158;-64
2022/09/16 17:58:12;;;;;;;7.40;1.13;;;18.00;87.50;;;;;;10446195;28;20054;-65
2022/09/16 18:03:12;;;;;;;3.03;1.10;;;18.00;87.60;;;;;;10443453;28;20372;-64
2022/09/16 18:08:13;;;;;;;3.30;0.85;;;18.00;87.70;;;;;;10441731;28;20137;-67
2022/09/16 18:13:14;;;;;;;3.30;0.90;;;17.90;87.70;;;;;;10430025;28;20567;-64
2022/09/16 18:18:17;;;;;;;3.22;0.90;;;18.00;87.80;;;;;;10449182;28;20032;-64
2022/09/16 18:23:17;;;;;;;6.45;1.20;;;17.90;87.90;;;;;;10514916;28;20078;-64
2022/09/16 18:28:18;;;;;;;5.40;1.33;;;17.90;87.90;;;;;;10519076;28;20508;-64
2022/09/16 18:33:19;;;;;;;5.28;1.02;;;17.90;88.00;;;;;;10520943;28;20024;-64
2022/09/16 18:38:19;;;;;;;4.03;1.35;;;17.90;88.00;;;;;;10527524;28;20084;-64
2022/09/16 18:43:20;;;;;;;3.13;1.10;;;17.90;88.00;;;;;;10524656;28;20107;-64
2022/09/16 18:48:21;;;;;;;3.10;0.65;;;17.80;88.10;;;;;;10522830;28;20036;-66
2022/09/16 18:53:21;;;;;;;3.97;1.25;;;17.80;88.20;;;;;;10504943;28;20077;-64
2022/09/16 18:58:22;;;;;;;4.50;1.10;;;17.80;88.20;;;;;;10523053;28;20040;-64
2022/09/16 19:03:23;;;;;;;3.72;0.70;;;17.80;88.30;;;;;;10522027;28;20102;-64
2022/09/16 19:08:24;;;;;;;2.80;0.95;;;17.80;88.30;;;;;;10523394;28;20064;-64
2022/09/16 19:13:24;;;;;;;2.17;0.90;;;17.70;88.30;;;;;;10520709;28;20027;-65
2022/09/16 19:18:27;;;;;;;5.93;1.80;;;17.70;88.40;;;;;;10522074;28;20365;-65
2022/09/16 19:23:28;;;;;;;3.25;1.00;;;17.70;88.40;;;;;;10520494;28;20067;-65
2022/09/16 19:28:30;;;;;;;2.13;0.80;;;17.70;88.60;;;;;;10521826;28;20116;-63
2022/09/16 19:33:31;;;;;;;4.07;1.27;;;17.70;88.70;;;;;;10520819;28;20305;-65
2022/09/16 19:38:34;;;;;;;2.25;0.80;;;17.60;88.70;;;;;;10522862;28;20473;-64
2022/09/16 19:43:35;;;;;;;2.75;0.82;;;17.60;88.80;;;;;;10519982;28;20020;-65
2022/09/16 19:48:37;;;;;;;2.53;0.60;;;17.60;88.90;;;;;;10518997;28;20423;-65
2022/09/16 19:53:39;;;;;;;1.75;0.60;;;17.60;88.90;;;;;;10519548;28;20423;-64
2022/09/16 19:58:40;;;;;;;4.63;1.52;;;17.60;89.00;;;;;;10517193;28;20032;-64
2022/09/16 20:03:44;;;;;;;2.75;1.00;;;17.50;89.00;;;;;;10519519;28;20491;-65
2022/09/16 20:08:47;;;;;;;4.13;1.15;;;17.50;89.00;;;;;;10520563;28;20052;-65
2022/09/16 20:13:59;;;;;;;3.08;0.70;;;17.50;89.10;;;;;;10516862;28;20012;-64
2022/09/16 20:19:00;;;;;;;3.10;1.00;;;17.50;89.20;;;;;;10516958;28;20169;-65
2022/09/16 20:24:04;;;;;;;2.22;0.88;;;17.50;89.20;;;;;;10516192;28;20032;-65
2022/09/16 20:29:05;;;;;;;2.78;0.77;;;17.50;89.20;;;;;;10516692;28;20497;-65
2022/09/16 20:34:05;;;;;;;2.95;0.88;;;17.40;89.20;;;;;;10516491;28;20024;-65
2022/09/16 20:39:07;;;;;;;2.35;0.90;;;17.40;89.20;;;;;;10517812;28;20069;-64
2022/09/16 20:44:13;;;;;;;3.72;0.85;;;17.40;89.30;;;;;;10512069;28;20446;-64
2022/09/16 20:49:16;;;;;;;2.92;0.88;;;17.40;89.40;;;;;;10516327;28;20412;-67
2022/09/16 20:54:17;;;;;;;3.95;0.90;;;17.40;89.40;;;;;;10514086;28;20611;-65
2022/09/16 20:59:19;;;;;;;2.75;0.70;;;17.40;89.50;;;;;;10495125;28;20036;-64
2022/09/16 21:04:20;;;;;;;4.82;1.25;;;17.30;89.50;;;;;;10514846;28;20091;-64
2022/09/16 21:09:20;;;;;;;4.15;1.00;;;17.30;89.50;;;;;;10514067;28;20048;-65
2022/09/16 21:14:21;;;;;;;5.05;0.90;;;17.30;89.50;;;;;;10517254;28;20024;-64
2022/09/16 21:19:22;;;;;;;2.58;1.00;;;17.30;89.60;;;;;;10517352;28;20094;-65
2022/09/16 21:24:23;;;;;;;3.17;0.80;;;17.30;89.70;;;;;;10517215;28;20024;-64
2022/09/16 21:29:24;;;;;;;3.85;0.88;;;17.30;89.70;;;;;;10519359;28;20073;-65
2022/09/16 21:34:25;;;;;;;4.00;0.77;;;17.20;89.70;;;;;;10524452;22;20355;-65
2022/09/16 21:39:26;;;;;;;5.97;1.05;;;17.20;89.80;;;;;;10475789;28;20028;-65
2022/09/16 21:44:27;;;;;;;5.20;2.05;;;17.20;89.80;;;;;;10475933;28;20029;-65
2022/09/16 21:49:29;;;;;;;3.20;0.63;;;17.20;89.90;;;;;;10478134;28;20366;-64
2022/09/16 21:54:31;;;;;;;5.03;0.93;;;17.20;89.90;;;;;;10477412;28;20029;-64
2022/09/16 21:59:31;;;;;;;11.65;2.15;;;17.10;89.90;;;;;;10477463;28;20032;-64
2022/09/16 22:04:32;;;;;;;4.88;0.85;;;17.10;89.90;;;;;;10477088;28;20020;-64
2022/09/16 22:09:33;;;;;;;1.88;0.90;;;17.10;90.00;;;;;;10485533;28;20553;-64
2022/09/16 22:14:33;;;;;;;5.47;1.55;;;17.10;89.90;;;;;;10485493;28;20050;-65
2022/09/16 22:19:34;;;;;;;4.40;0.95;;;16.80;90.10;;;;;;10486073;28;20451;-64
2022/09/16 22:24:35;;;;;;;4.38;0.93;;;17.10;89.90;;;;;;10490052;28;20028;-65
2022/09/16 22:29:36;;;;;;;5.32;1.08;;;17.10;90.00;;;;;;10486097;28;20024;-65
2022/09/16 22:34:36;;;;;;;4.88;0.98;;;17.00;89.90;;;;;;10490696;28;20036;-65
2022/09/16 22:39:37;;;;;;;5.82;0.80;;;17.00;89.90;;;;;;10484800;28;20041;-64
2022/09/16 22:44:38;;;;;;;5.68;2.05;;;17.00;89.90;;;;;;10485818;28;20032;-67
2022/09/16 22:49:39;;;;;;;4.22;0.95;;;16.90;89.80;;;;;;10481742;28;20028;-64
2022/09/16 22:54:39;;;;;;;5.40;1.02;;;17.00;89.90;;;;;;10485153;28;20028;-64
2022/09/16 22:59:40;;;;;;;3.80;0.80;;;16.90;89.80;;;;;;10474647;28;20393;-65
2022/09/16 23:04:41;;;;;;;4.05;1.00;;;16.90;89.80;;;;;;10483957;28;20062;-65
2022/09/16 23:09:42;;;;;;;4.40;0.80;;;16.90;89.80;;;;;;10483733;28;20152;-65
2022/09/16 23:14:43;;;;;;;3.97;1.52;;;16.80;89.80;;;;;;10484039;28;20021;-64
2022/09/16 23:19:44;;;;;;;4.97;0.90;;;16.80;89.80;;;;;;10481077;28;20047;-64
2022/09/16 23:24:45;;;;;;;8.75;1.40;;;16.80;89.70;;;;;;10480722;28;20025;-64
2022/09/16 23:29:46;;;;;;;6.28;1.17;;;16.80;89.70;;;;;;10481097;28;20032;-64
2022/09/16 23:34:46;;;;;;;4.70;1.45;;;16.80;89.60;;;;;;10479766;28;20052;-65
2022/09/16 23:39:47;;;;;;;3.08;0.93;;;16.80;89.60;;;;;;10482545;28;20044;-64
2022/09/16 23:44:48;;;;;;;8.98;2.10;;;16.70;89.50;;;;;;10477475;28;20023;-65
2022/09/16 23:49:48;;;;;;;6.40;1.20;;;16.70;89.50;;;;;;10481707;28;20035;-65
2022/09/16 23:54:49;;;;;;;3.45;1.00;;;16.70;89.40;;;;;;10481403;28;20459;-64
2022/09/16 23:59:50;;;;;;;3.97;0.80;;;16.70;89.40;;;;;;10479603;28;20041;-65
